sensor_id;sensor_type;location;lat;lon;timestamp;temperature;humidity
5457;DHT22;2751;49.802;9.944;2023-04-24T00:01:56;11.90;1.00
5457;DHT22;2751;49.802;9.944;2023-04-24T00:04:23;12.00;18.90
5457;DHT22;2751;49.802;9.944;2023-04-24T00:06:51;12.00;1.00
5457;DHT22;2751;49.802;9.944;2023-04-24T00:09:19;11.90;1.00
5457;DHT22;2751;49.802;9.944;2023-04-24T00:11:46;12.00;1.00
5457;DHT22;2751;49.802;9.944;2023-04-24T00:14:13;11.90;1.00
5457;DHT22;2751;49.802;9.944;2023-04-24T00:16:40;11.90;1.00
5457;DHT22;2751;49.802;9.944;2023-04-24T00:19:08;12.00;1.00
5457;DHT22;2751;49.802;9.944;2023-04-24T00:21:36;11.90;1.00
5457;DHT22;2751;49.802;9.944;2023-04-24T00:24:04;11.90;1.00
5457;DHT22;2751;49.802;9.944;2023-04-24T00:26:30;11.90;99.90
5457;DHT22;2751;49.802;9.944;2023-04-24T00:28:57;11.90;99.90
5457;DHT22;2751;49.802;9.944;2023-04-24T00:31:24;11.90;99.90
5457;DHT22;2751;49.802;9.944;2023-04-24T00:33:51;11.90;99.90
5457;DHT22;2751;49.802;9.944;2023-04-24T00:36:19;11.90;99.90
5457;DHT22;2751;49.802;9.944;2023-04-24T00:38:46;11.90;99.90
5457;DHT22;2751;49.802;9.944;2023-04-24T00:41:13;11.80;99.90
5457;DHT22;2751;49.802;9.944;2023-04-24T00:43:40;11.80;1.00
5457;DHT22;2751;49.802;9.944;2023-04-24T00:46:07;11.80;99.90
5457;DHT22;2751;49.802;9.944;2023-04-24T00:48:34;11.80;1.00
5457;DHT22;2751;49.802;9.944;2023-04-24T00:51:01;11.80;99.90
5457;DHT22;2751;49.802;9.944;2023-04-24T00:53:29;11.80;99.90
5457;DHT22;2751;49.802;9.944;2023-04-24T00:55:57;11.80;99.90
5457;DHT22;2751;49.802;9.944;2023-04-24T00:58:24;11.80;99.90
5457;DHT22;2751;49.802;9.944;2023-04-24T01:00:51;11.80;99.90
5457;DHT22;2751;49.802;9.944;2023-04-24T01:03:20;11.80;1.00
5457;DHT22;2751;49.802;9.944;2023-04-24T01:05:49;11.80;99.90
5457;DHT22;2751;49.802;9.944;2023-04-24T01:08:16;12.20;99.90
5457;DHT22;2751;49.802;9.944;2023-04-24T01:10:44;11.80;99.90
5457;DHT22;2751;49.802;9.944;2023-04-24T01:13:12;11.80;99.90
5457;DHT22;2751;49.802;9.944;2023-04-24T01:15:39;11.60;99.90
5457;DHT22;2751;49.802;9.944;2023-04-24T01:18:06;11.90;99.90
5457;DHT22;2751;49.802;9.944;2023-04-24T01:20:33;11.90;99.90
5457;DHT22;2751;49.802;9.944;2023-04-24T01:23:03;11.90;1.00
5457;DHT22;2751;49.802;9.944;2023-04-24T01:25:30;11.90;1.00
5457;DHT22;2751;49.802;9.944;2023-04-24T01:27:57;11.90;1.00
5457;DHT22;2751;49.802;9.944;2023-04-24T01:30:24;11.90;1.00
5457;DHT22;2751;49.802;9.944;2023-04-24T01:32:51;11.90;1.00
5457;DHT22;2751;49.802;9.944;2023-04-24T01:35:18;12.00;1.00
5457;DHT22;2751;49.802;9.944;2023-04-24T01:37:45;11.90;1.00
5457;DHT22;2751;49.802;9.944;2023-04-24T01:40:14;11.90;1.00
5457;DHT22;2751;49.802;9.944;2023-04-24T01:42:41;12.10;1.00
5457;DHT22;2751;49.802;9.944;2023-04-24T01:45:10;11.90;1.00
5457;DHT22;2751;49.802;9.944;2023-04-24T01:47:38;11.70;1.00
5457;DHT22;2751;49.802;9.944;2023-04-24T01:50:05;12.00;1.00
5457;DHT22;2751;49.802;9.944;2023-04-24T01:52:32;12.00;1.00
5457;DHT22;2751;49.802;9.944;2023-04-24T01:55:01;12.00;1.00
5457;DHT22;2751;49.802;9.944;2023-04-24T01:57:31;11.90;1.00
5457;DHT22;2751;49.802;9.944;2023-04-24T01:59:58;12.00;1.00
5457;DHT22;2751;49.802;9.944;2023-04-24T02:02:25;12.00;1.00
5457;DHT22;2751;49.802;9.944;2023-04-24T02:04:53;12.00;1.00
5457;DHT22;2751;49.802;9.944;2023-04-24T02:07:20;12.00;1.00
5457;DHT22;2751;49.802;9.944;2023-04-24T02:09:46;12.00;1.00
5457;DHT22;2751;49.802;9.944;2023-04-24T02:12:13;11.90;1.00
5457;DHT22;2751;49.802;9.944;2023-04-24T02:14:42;11.90;1.00
5457;DHT22;2751;49.802;9.944;2023-04-24T02:17:09;11.90;1.00
5457;DHT22;2751;49.802;9.944;2023-04-24T02:19:38;12.10;1.00
5457;DHT22;2751;49.802;9.944;2023-04-24T02:22:05;11.90;1.00
5457;DHT22;2751;49.802;9.944;2023-04-24T02:24:32;11.90;1.00
5457;DHT22;2751;49.802;9.944;2023-04-24T02:26:59;11.90;1.00
5457;DHT22;2751;49.802;9.944;2023-04-24T02:29:27;12.10;1.00
5457;DHT22;2751;49.802;9.944;2023-04-24T02:31:55;11.80;1.00
5457;DHT22;2751;49.802;9.944;2023-04-24T02:34:22;11.80;1.00
5457;DHT22;2751;49.802;9.944;2023-04-24T02:36:50;11.80;1.00
5457;DHT22;2751;49.802;9.944;2023-04-24T02:39:16;11.80;1.00
5457;DHT22;2751;49.802;9.944;2023-04-24T02:41:44;11.70;1.00
5457;DHT22;2751;49.802;9.944;2023-04-24T02:44:11;11.70;1.00
5457;DHT22;2751;49.802;9.944;2023-04-24T02:46:38;11.70;1.00
5457;DHT22;2751;49.802;9.944;2023-04-24T02:49:08;11.70;1.00
5457;DHT22;2751;49.802;9.944;2023-04-24T02:51:34;11.70;1.00
5457;DHT22;2751;49.802;9.944;2023-04-24T02:54:06;11.60;1.00
5457;DHT22;2751;49.802;9.944;2023-04-24T02:56:35;11.60;1.00
5457;DHT22;2751;49.802;9.944;2023-04-24T02:59:02;11.60;1.00
5457;DHT22;2751;49.802;9.944;2023-04-24T03:01:29;11.60;1.00
5457;DHT22;2751;49.802;9.944;2023-04-24T03:03:56;11.60;1.00
5457;DHT22;2751;49.802;9.944;2023-04-24T03:06:24;11.60;1.00
5457;DHT22;2751;49.802;9.944;2023-04-24T03:08:52;11.60;1.00
5457;DHT22;2751;49.802;9.944;2023-04-24T03:11:19;11.60;1.00
5457;DHT22;2751;49.802;9.944;2023-04-24T03:13:46;11.60;1.00
5457;DHT22;2751;49.802;9.944;2023-04-24T03:16:13;11.50;1.00
5457;DHT22;2751;49.802;9.944;2023-04-24T03:18:40;11.50;1.00
5457;DHT22;2751;49.802;9.944;2023-04-24T03:21:06;11.50;1.00
5457;DHT22;2751;49.802;9.944;2023-04-24T03:23:36;11.50;1.00
5457;DHT22;2751;49.802;9.944;2023-04-24T03:26:03;11.50;1.00
5457;DHT22;2751;49.802;9.944;2023-04-24T03:28:30;11.50;1.00
5457;DHT22;2751;49.802;9.944;2023-04-24T03:30:57;11.50;1.00
5457;DHT22;2751;49.802;9.944;2023-04-24T03:33:24;11.60;1.00
5457;DHT22;2751;49.802;9.944;2023-04-24T03:35:51;11.60;1.00
5457;DHT22;2751;49.802;9.944;2023-04-24T03:38:18;11.60;1.00
5457;DHT22;2751;49.802;9.944;2023-04-24T03:40:46;12.00;1.00
5457;DHT22;2751;49.802;9.944;2023-04-24T03:43:13;11.70;1.00
5457;DHT22;2751;49.802;9.944;2023-04-24T03:45:40;11.70;1.00
5457;DHT22;2751;49.802;9.944;2023-04-24T03:48:07;11.70;1.00
5457;DHT22;2751;49.802;9.944;2023-04-24T03:50:34;11.70;1.00
5457;DHT22;2751;49.802;9.944;2023-04-24T03:53:01;12.00;1.00
5457;DHT22;2751;49.802;9.944;2023-04-24T03:55:27;11.60;1.00
5457;DHT22;2751;49.802;9.944;2023-04-24T03:57:56;11.50;1.00
5457;DHT22;2751;49.802;9.944;2023-04-24T04:00:22;11.60;1.00
5457;DHT22;2751;49.802;9.944;2023-04-24T04:02:50;11.40;1.00
5457;DHT22;2751;49.802;9.944;2023-04-24T04:05:16;11.40;1.00
5457;DHT22;2751;49.802;9.944;2023-04-24T04:07:43;11.30;1.00
5457;DHT22;2751;49.802;9.944;2023-04-24T04:10:10;11.30;1.00
5457;DHT22;2751;49.802;9.944;2023-04-24T04:12:37;11.30;1.00
5457;DHT22;2751;49.802;9.944;2023-04-24T04:15:06;11.30;1.00
5457;DHT22;2751;49.802;9.944;2023-04-24T04:17:33;11.20;1.00
5457;DHT22;2751;49.802;9.944;2023-04-24T04:20:00;11.20;1.00
5457;DHT22;2751;49.802;9.944;2023-04-24T04:22:30;11.20;1.00
5457;DHT22;2751;49.802;9.944;2023-04-24T04:24:57;11.20;1.00
5457;DHT22;2751;49.802;9.944;2023-04-24T04:27:24;11.10;35.40
5457;DHT22;2751;49.802;9.944;2023-04-24T04:29:52;11.10;99.90
5457;DHT22;2751;49.802;9.944;2023-04-24T04:32:20;11.10;99.90
5457;DHT22;2751;49.802;9.944;2023-04-24T04:34:47;11.10;77.50
5457;DHT22;2751;49.802;9.944;2023-04-24T04:37:14;11.10;99.90
5457;DHT22;2751;49.802;9.944;2023-04-24T04:39:42;11.10;99.90
5457;DHT22;2751;49.802;9.944;2023-04-24T04:42:09;11.10;99.90
5457;DHT22;2751;49.802;9.944;2023-04-24T04:44:36;11.20;99.90
5457;DHT22;2751;49.802;9.944;2023-04-24T04:47:04;11.20;1.00
5457;DHT22;2751;49.802;9.944;2023-04-24T04:49:33;11.30;99.90
5457;DHT22;2751;49.802;9.944;2023-04-24T04:52:00;11.30;99.90
5457;DHT22;2751;49.802;9.944;2023-04-24T04:54:27;11.40;80.60
5457;DHT22;2751;49.802;9.944;2023-04-24T04:56:54;11.40;37.10
5457;DHT22;2751;49.802;9.944;2023-04-24T04:59:22;11.40;99.90
5457;DHT22;2751;49.802;9.944;2023-04-24T05:01:49;11.40;1.00
5457;DHT22;2751;49.802;9.944;2023-04-24T05:04:16;11.30;1.00
5457;DHT22;2751;49.802;9.944;2023-04-24T05:06:44;11.30;1.00
5457;DHT22;2751;49.802;9.944;2023-04-24T05:09:12;11.40;1.00
5457;DHT22;2751;49.802;9.944;2023-04-24T05:11:39;11.40;1.00
5457;DHT22;2751;49.802;9.944;2023-04-24T05:14:06;11.40;1.00
5457;DHT22;2751;49.802;9.944;2023-04-24T05:16:33;11.50;1.00
5457;DHT22;2751;49.802;9.944;2023-04-24T05:19:00;11.40;1.00
5457;DHT22;2751;49.802;9.944;2023-04-24T05:21:26;11.70;1.00
5457;DHT22;2751;49.802;9.944;2023-04-24T05:23:55;11.40;1.00
5457;DHT22;2751;49.802;9.944;2023-04-24T05:26:23;11.40;1.00
5457;DHT22;2751;49.802;9.944;2023-04-24T05:28:50;11.40;1.00
5457;DHT22;2751;49.802;9.944;2023-04-24T05:31:16;11.40;99.90
5457;DHT22;2751;49.802;9.944;2023-04-24T05:33:43;11.30;40.30
5457;DHT22;2751;49.802;9.944;2023-04-24T05:36:10;11.20;1.00
5457;DHT22;2751;49.802;9.944;2023-04-24T05:38:37;11.20;1.00
5457;DHT22;2751;49.802;9.944;2023-04-24T05:41:05;11.50;99.90
5457;DHT22;2751;49.802;9.944;2023-04-24T05:43:32;11.20;55.40
5457;DHT22;2751;49.802;9.944;2023-04-24T05:45:59;11.20;1.00
5457;DHT22;2751;49.802;9.944;2023-04-24T05:48:26;11.30;99.90
5457;DHT22;2751;49.802;9.944;2023-04-24T05:50:53;11.30;1.00
5457;DHT22;2751;49.802;9.944;2023-04-24T05:53:20;11.20;1.00
5457;DHT22;2751;49.802;9.944;2023-04-24T05:55:47;11.30;99.90
5457;DHT22;2751;49.802;9.944;2023-04-24T05:58:15;11.40;1.00
5457;DHT22;2751;49.802;9.944;2023-04-24T06:00:42;11.60;1.00
5457;DHT22;2751;49.802;9.944;2023-04-24T06:03:11;11.40;91.40
5457;DHT22;2751;49.802;9.944;2023-04-24T06:05:38;11.40;95.30
5457;DHT22;2751;49.802;9.944;2023-04-24T06:08:05;11.30;96.40
5457;DHT22;2751;49.802;9.944;2023-04-24T06:10:32;11.30;99.50
5457;DHT22;2751;49.802;9.944;2023-04-24T06:12:59;11.30;98.90
5457;DHT22;2751;49.802;9.944;2023-04-24T06:15:29;11.30;99.90
5457;DHT22;2751;49.802;9.944;2023-04-24T06:17:56;11.40;99.90
5457;DHT22;2751;49.802;9.944;2023-04-24T06:20:24;11.40;99.90
5457;DHT22;2751;49.802;9.944;2023-04-24T06:22:51;11.40;99.90
5457;DHT22;2751;49.802;9.944;2023-04-24T06:25:18;11.50;99.90
5457;DHT22;2751;49.802;9.944;2023-04-24T06:27:45;11.40;99.90
5457;DHT22;2751;49.802;9.944;2023-04-24T06:30:12;11.50;99.90
5457;DHT22;2751;49.802;9.944;2023-04-24T06:32:41;11.50;99.90
5457;DHT22;2751;49.802;9.944;2023-04-24T06:35:08;11.50;99.90
5457;DHT22;2751;49.802;9.944;2023-04-24T06:37:35;11.60;99.90
5457;DHT22;2751;49.802;9.944;2023-04-24T06:40:06;11.60;99.90
5457;DHT22;2751;49.802;9.944;2023-04-24T06:42:33;11.70;99.90
5457;DHT22;2751;49.802;9.944;2023-04-24T06:45:00;11.70;99.90
5457;DHT22;2751;49.802;9.944;2023-04-24T06:47:27;11.70;99.90
5457;DHT22;2751;49.802;9.944;2023-04-24T06:49:55;11.80;99.90
5457;DHT22;2751;49.802;9.944;2023-04-24T06:52:22;11.80;99.90
5457;DHT22;2751;49.802;9.944;2023-04-24T06:54:49;11.80;99.90
5457;DHT22;2751;49.802;9.944;2023-04-24T06:57:17;11.80;99.90
5457;DHT22;2751;49.802;9.944;2023-04-24T06:59:44;11.70;99.90
5457;DHT22;2751;49.802;9.944;2023-04-24T07:02:11;11.70;99.90
5457;DHT22;2751;49.802;9.944;2023-04-24T07:04:37;11.70;99.90
5457;DHT22;2751;49.802;9.944;2023-04-24T07:07:06;11.70;99.90
5457;DHT22;2751;49.802;9.944;2023-04-24T07:09:34;11.70;99.90
5457;DHT22;2751;49.802;9.944;2023-04-24T07:12:04;11.80;99.90
5457;DHT22;2751;49.802;9.944;2023-04-24T07:14:31;11.80;99.90
5457;DHT22;2751;49.802;9.944;2023-04-24T07:16:58;11.90;99.90
5457;DHT22;2751;49.802;9.944;2023-04-24T07:19:25;12.00;99.90
5457;DHT22;2751;49.802;9.944;2023-04-24T07:21:51;12.20;99.90
5457;DHT22;2751;49.802;9.944;2023-04-24T07:24:20;12.40;99.90
5457;DHT22;2751;49.802;9.944;2023-04-24T07:26:47;12.60;99.90
5457;DHT22;2751;49.802;9.944;2023-04-24T07:29:14;12.60;99.90
5457;DHT22;2751;49.802;9.944;2023-04-24T07:31:41;12.60;99.90
5457;DHT22;2751;49.802;9.944;2023-04-24T07:34:08;12.90;99.90
5457;DHT22;2751;49.802;9.944;2023-04-24T07:36:35;12.90;99.90
5457;DHT22;2751;49.802;9.944;2023-04-24T07:39:03;12.70;99.90
5457;DHT22;2751;49.802;9.944;2023-04-24T07:41:32;12.90;99.90
5457;DHT22;2751;49.802;9.944;2023-04-24T07:43:59;13.20;99.90
5457;DHT22;2751;49.802;9.944;2023-04-24T07:46:26;13.10;99.90
5457;DHT22;2751;49.802;9.944;2023-04-24T07:48:55;13.30;99.90
5457;DHT22;2751;49.802;9.944;2023-04-24T07:51:22;13.00;99.90
5457;DHT22;2751;49.802;9.944;2023-04-24T07:53:49;13.30;99.90
5457;DHT22;2751;49.802;9.944;2023-04-24T07:56:16;13.10;99.90
5457;DHT22;2751;49.802;9.944;2023-04-24T07:58:44;13.50;99.90
5457;DHT22;2751;49.802;9.944;2023-04-24T08:01:11;13.30;99.90
5457;DHT22;2751;49.802;9.944;2023-04-24T08:03:38;13.30;99.90
5457;DHT22;2751;49.802;9.944;2023-04-24T08:06:05;13.10;99.90
5457;DHT22;2751;49.802;9.944;2023-04-24T08:08:32;13.00;99.90
5457;DHT22;2751;49.802;9.944;2023-04-24T08:10:59;12.90;99.90
5457;DHT22;2751;49.802;9.944;2023-04-24T08:13:26;12.90;99.90
5457;DHT22;2751;49.802;9.944;2023-04-24T08:15:55;12.90;99.90
5457;DHT22;2751;49.802;9.944;2023-04-24T08:18:22;13.00;99.90
5457;DHT22;2751;49.802;9.944;2023-04-24T08:20:49;13.00;99.90
5457;DHT22;2751;49.802;9.944;2023-04-24T08:23:16;13.00;99.90
5457;DHT22;2751;49.802;9.944;2023-04-24T08:25:43;13.00;99.90
5457;DHT22;2751;49.802;9.944;2023-04-24T08:28:10;13.40;99.90
5457;DHT22;2751;49.802;9.944;2023-04-24T08:30:37;13.20;99.90
5457;DHT22;2751;49.802;9.944;2023-04-24T08:33:05;13.50;99.90
5457;DHT22;2751;49.802;9.944;2023-04-24T08:35:32;13.60;99.90
5457;DHT22;2751;49.802;9.944;2023-04-24T08:37:59;13.90;99.90
5457;DHT22;2751;49.802;9.944;2023-04-24T08:40:28;13.30;99.90
5457;DHT22;2751;49.802;9.944;2023-04-24T08:42:56;13.00;99.90
5457;DHT22;2751;49.802;9.944;2023-04-24T08:45:23;12.80;99.90
5457;DHT22;2751;49.802;9.944;2023-04-24T08:47:52;12.20;99.90
5457;DHT22;2751;49.802;9.944;2023-04-24T08:50:21;11.90;99.90
5457;DHT22;2751;49.802;9.944;2023-04-24T08:52:50;11.90;99.90
5457;DHT22;2751;49.802;9.944;2023-04-24T08:55:19;12.00;99.90
5457;DHT22;2751;49.802;9.944;2023-04-24T08:57:49;12.20;99.90
5457;DHT22;2751;49.802;9.944;2023-04-24T09:00:18;12.50;99.90
5457;DHT22;2751;49.802;9.944;2023-04-24T09:02:45;12.80;99.90
5457;DHT22;2751;49.802;9.944;2023-04-24T09:05:14;14.00;99.90
5457;DHT22;2751;49.802;9.944;2023-04-24T09:07:45;15.30;99.90
5457;DHT22;2751;49.802;9.944;2023-04-24T09:10:15;16.80;99.90
5457;DHT22;2751;49.802;9.944;2023-04-24T09:12:42;17.40;99.90
5457;DHT22;2751;49.802;9.944;2023-04-24T09:15:11;18.50;99.90
5457;DHT22;2751;49.802;9.944;2023-04-24T09:17:38;19.00;99.90
5457;DHT22;2751;49.802;9.944;2023-04-24T09:20:06;18.60;99.10
5457;DHT22;2751;49.802;9.944;2023-04-24T09:22:33;19.80;98.10
5457;DHT22;2751;49.802;9.944;2023-04-24T09:25:03;20.00;95.90
5457;DHT22;2751;49.802;9.944;2023-04-24T09:27:32;19.50;92.90
5457;DHT22;2751;49.802;9.944;2023-04-24T09:30:00;18.10;94.90
5457;DHT22;2751;49.802;9.944;2023-04-24T09:32:28;18.30;95.50
5457;DHT22;2751;49.802;9.944;2023-04-24T09:35:09;18.90;91.50
5457;DHT22;2751;49.802;9.944;2023-04-24T09:37:37;19.40;1.00
5457;DHT22;2751;49.802;9.944;2023-04-24T09:40:13;19.20;1.00
5457;DHT22;2751;49.802;9.944;2023-04-24T09:42:53;19.00;1.00
5457;DHT22;2751;49.802;9.944;2023-04-24T09:45:21;19.20;1.00
5457;DHT22;2751;49.802;9.944;2023-04-24T09:47:52;19.10;1.00
5457;DHT22;2751;49.802;9.944;2023-04-24T09:50:19;19.60;1.00
5457;DHT22;2751;49.802;9.944;2023-04-24T09:52:55;18.70;1.00
5457;DHT22;2751;49.802;9.944;2023-04-24T09:55:24;18.50;1.00
5457;DHT22;2751;49.802;9.944;2023-04-24T09:57:53;18.20;1.00
5457;DHT22;2751;49.802;9.944;2023-04-24T10:00:23;17.50;1.00
5457;DHT22;2751;49.802;9.944;2023-04-24T10:02:54;17.10;1.00
5457;DHT22;2751;49.802;9.944;2023-04-24T10:05:26;17.20;1.00
5457;DHT22;2751;49.802;9.944;2023-04-24T10:07:57;15.90;1.00
5457;DHT22;2751;49.802;9.944;2023-04-24T10:10:25;15.40;1.00
5457;DHT22;2751;49.802;9.944;2023-04-24T10:12:53;14.80;1.00
5457;DHT22;2751;49.802;9.944;2023-04-24T10:15:21;14.70;1.00
5457;DHT22;2751;49.802;9.944;2023-04-24T10:17:48;15.10;1.00
5457;DHT22;2751;49.802;9.944;2023-04-24T10:20:19;15.30;1.00
5457;DHT22;2751;49.802;9.944;2023-04-24T10:22:48;15.60;1.00
5457;DHT22;2751;49.802;9.944;2023-04-24T10:25:18;15.90;1.00
5457;DHT22;2751;49.802;9.944;2023-04-24T10:27:47;16.40;1.00
5457;DHT22;2751;49.802;9.944;2023-04-24T10:30:15;16.00;1.00
5457;DHT22;2751;49.802;9.944;2023-04-24T10:32:42;15.70;1.00
5457;DHT22;2751;49.802;9.944;2023-04-24T10:35:09;15.40;1.00
5457;DHT22;2751;49.802;9.944;2023-04-24T10:37:38;14.30;1.00
5457;DHT22;2751;49.802;9.944;2023-04-24T10:40:07;14.10;1.00
5457;DHT22;2751;49.802;9.944;2023-04-24T10:42:35;14.00;1.00
5457;DHT22;2751;49.802;9.944;2023-04-24T10:45:16;13.90;1.00
5457;DHT22;2751;49.802;9.944;2023-04-24T10:47:51;14.00;1.00
5457;DHT22;2751;49.802;9.944;2023-04-24T10:50:18;13.70;1.00
5457;DHT22;2751;49.802;9.944;2023-04-24T10:52:45;13.50;1.00
5457;DHT22;2751;49.802;9.944;2023-04-24T10:55:13;13.40;1.00
5457;DHT22;2751;49.802;9.944;2023-04-24T10:58:02;13.30;1.00
5457;DHT22;2751;49.802;9.944;2023-04-24T11:00:30;13.40;1.00
5457;DHT22;2751;49.802;9.944;2023-04-24T11:02:57;13.70;1.00
5457;DHT22;2751;49.802;9.944;2023-04-24T11:05:49;14.40;1.00
5457;DHT22;2751;49.802;9.944;2023-04-24T11:08:22;14.40;1.00
5457;DHT22;2751;49.802;9.944;2023-04-24T11:10:55;14.80;1.00
5457;DHT22;2751;49.802;9.944;2023-04-24T11:13:24;14.50;1.00
5457;DHT22;2751;49.802;9.944;2023-04-24T11:16:15;14.20;1.00
5457;DHT22;2751;49.802;9.944;2023-04-24T11:18:50;13.70;1.00
5457;DHT22;2751;49.802;9.944;2023-04-24T11:21:20;13.40;1.00
5457;DHT22;2751;49.802;9.944;2023-04-24T11:23:47;13.40;1.00
5457;DHT22;2751;49.802;9.944;2023-04-24T11:26:18;13.10;1.00
5457;DHT22;2751;49.802;9.944;2023-04-24T11:28:46;13.20;1.00
5457;DHT22;2751;49.802;9.944;2023-04-24T11:31:37;13.30;1.00
5457;DHT22;2751;49.802;9.944;2023-04-24T11:34:08;13.20;1.00
5457;DHT22;2751;49.802;9.944;2023-04-24T11:36:36;13.00;1.00
5457;DHT22;2751;49.802;9.944;2023-04-24T11:39:03;13.30;1.00
5457;DHT22;2751;49.802;9.944;2023-04-24T11:41:30;13.00;1.00
5457;DHT22;2751;49.802;9.944;2023-04-24T11:43:57;13.40;1.00
5457;DHT22;2751;49.802;9.944;2023-04-24T11:46:27;12.90;1.00
5457;DHT22;2751;49.802;9.944;2023-04-24T11:48:56;12.90;99.90
5457;DHT22;2751;49.802;9.944;2023-04-24T11:51:24;13.30;1.00
5457;DHT22;2751;49.802;9.944;2023-04-24T11:53:52;13.20;1.00
5457;DHT22;2751;49.802;9.944;2023-04-24T11:56:19;13.90;1.00
5457;DHT22;2751;49.802;9.944;2023-04-24T11:58:47;14.00;1.00
5457;DHT22;2751;49.802;9.944;2023-04-24T12:01:14;13.90;1.00
5457;DHT22;2751;49.802;9.944;2023-04-24T12:03:41;13.60;1.00
5457;DHT22;2751;49.802;9.944;2023-04-24T12:06:13;13.40;57.80
5457;DHT22;2751;49.802;9.944;2023-04-24T12:08:40;13.90;99.90
5457;DHT22;2751;49.802;9.944;2023-04-24T12:11:07;14.20;99.90
5457;DHT22;2751;49.802;9.944;2023-04-24T12:13:35;14.30;99.90
5457;DHT22;2751;49.802;9.944;2023-04-24T12:16:03;14.80;99.20
5457;DHT22;2751;49.802;9.944;2023-04-24T12:18:31;14.90;97.70
5457;DHT22;2751;49.802;9.944;2023-04-24T12:21:20;15.60;96.40
5457;DHT22;2751;49.802;9.944;2023-04-24T12:23:47;18.10;1.00
5457;DHT22;2751;49.802;9.944;2023-04-24T12:26:17;18.30;1.00
5457;DHT22;2751;49.802;9.944;2023-04-24T12:28:47;19.50;1.00
5457;DHT22;2751;49.802;9.944;2023-04-24T12:31:15;20.60;1.00
5457;DHT22;2751;49.802;9.944;2023-04-24T12:33:42;19.80;1.00
5457;DHT22;2751;49.802;9.944;2023-04-24T12:36:10;18.90;1.00
5457;DHT22;2751;49.802;9.944;2023-04-24T12:38:43;18.10;1.00
5457;DHT22;2751;49.802;9.944;2023-04-24T12:41:13;19.50;1.00
5457;DHT22;2751;49.802;9.944;2023-04-24T12:43:51;19.10;1.00
5457;DHT22;2751;49.802;9.944;2023-04-24T12:46:18;17.70;1.00
5457;DHT22;2751;49.802;9.944;2023-04-24T12:48:45;16.80;1.00
5457;DHT22;2751;49.802;9.944;2023-04-24T12:51:12;15.70;1.00
5457;DHT22;2751;49.802;9.944;2023-04-24T12:53:40;15.20;1.00
5457;DHT22;2751;49.802;9.944;2023-04-24T12:56:07;14.90;1.00
5457;DHT22;2751;49.802;9.944;2023-04-24T12:58:33;14.40;1.00
5457;DHT22;2751;49.802;9.944;2023-04-24T13:01:00;14.30;1.00
5457;DHT22;2751;49.802;9.944;2023-04-24T13:03:27;14.00;1.00
5457;DHT22;2751;49.802;9.944;2023-04-24T13:05:54;13.90;1.00
5457;DHT22;2751;49.802;9.944;2023-04-24T13:08:21;13.90;1.00
5457;DHT22;2751;49.802;9.944;2023-04-24T13:10:49;13.70;1.00
5457;DHT22;2751;49.802;9.944;2023-04-24T13:13:17;13.30;1.00
5457;DHT22;2751;49.802;9.944;2023-04-24T13:15:45;13.50;1.00
5457;DHT22;2751;49.802;9.944;2023-04-24T13:18:12;13.50;1.00
5457;DHT22;2751;49.802;9.944;2023-04-24T13:20:39;13.40;1.00
5457;DHT22;2751;49.802;9.944;2023-04-24T13:23:07;13.40;1.00
5457;DHT22;2751;49.802;9.944;2023-04-24T13:25:35;13.50;1.00
5457;DHT22;2751;49.802;9.944;2023-04-24T13:28:04;13.60;1.00
5457;DHT22;2751;49.802;9.944;2023-04-24T13:30:31;14.40;1.00
5457;DHT22;2751;49.802;9.944;2023-04-24T13:32:58;14.60;1.00
5457;DHT22;2751;49.802;9.944;2023-04-24T13:35:25;15.20;1.00
5457;DHT22;2751;49.802;9.944;2023-04-24T13:37:52;16.60;1.00
5457;DHT22;2751;49.802;9.944;2023-04-24T13:40:19;16.50;1.00
5457;DHT22;2751;49.802;9.944;2023-04-24T13:42:46;16.90;1.00
5457;DHT22;2751;49.802;9.944;2023-04-24T13:45:14;17.10;1.00
5457;DHT22;2751;49.802;9.944;2023-04-24T13:47:42;15.90;1.00
5457;DHT22;2751;49.802;9.944;2023-04-24T13:50:09;15.00;1.00
5457;DHT22;2751;49.802;9.944;2023-04-24T13:52:36;14.50;1.00
5457;DHT22;2751;49.802;9.944;2023-04-24T13:55:04;14.30;1.00
5457;DHT22;2751;49.802;9.944;2023-04-24T13:57:31;14.10;1.00
5457;DHT22;2751;49.802;9.944;2023-04-24T13:59:58;13.80;1.00
5457;DHT22;2751;49.802;9.944;2023-04-24T14:02:28;13.50;1.00
5457;DHT22;2751;49.802;9.944;2023-04-24T14:04:55;13.50;1.00
5457;DHT22;2751;49.802;9.944;2023-04-24T14:07:21;12.90;1.00
5457;DHT22;2751;49.802;9.944;2023-04-24T14:09:48;12.50;1.00
5457;DHT22;2751;49.802;9.944;2023-04-24T14:12:15;12.40;30.40
5457;DHT22;2751;49.802;9.944;2023-04-24T14:14:45;12.30;99.90
5457;DHT22;2751;49.802;9.944;2023-04-24T14:17:12;12.10;99.90
5457;DHT22;2751;49.802;9.944;2023-04-24T14:19:40;11.90;99.90
5457;DHT22;2751;49.802;9.944;2023-04-24T14:22:07;12.00;99.90
5457;DHT22;2751;49.802;9.944;2023-04-24T14:24:34;12.00;99.90
5457;DHT22;2751;49.802;9.944;2023-04-24T14:27:01;12.20;99.90
5457;DHT22;2751;49.802;9.944;2023-04-24T14:29:28;12.50;99.90
5457;DHT22;2751;49.802;9.944;2023-04-24T14:31:55;13.80;99.90
5457;DHT22;2751;49.802;9.944;2023-04-24T14:34:22;15.70;99.90
5457;DHT22;2751;49.802;9.944;2023-04-24T14:36:52;16.50;97.30
5457;DHT22;2751;49.802;9.944;2023-04-24T14:39:20;17.70;1.00
5457;DHT22;2751;49.802;9.944;2023-04-24T14:41:46;18.80;1.00
5457;DHT22;2751;49.802;9.944;2023-04-24T14:44:13;18.90;1.00
5457;DHT22;2751;49.802;9.944;2023-04-24T14:46:41;18.50;1.00
5457;DHT22;2751;49.802;9.944;2023-04-24T14:49:08;19.00;1.00
5457;DHT22;2751;49.802;9.944;2023-04-24T14:51:35;18.80;1.00
5457;DHT22;2751;49.802;9.944;2023-04-24T14:54:03;18.70;1.00
5457;DHT22;2751;49.802;9.944;2023-04-24T14:56:30;16.70;1.00
5457;DHT22;2751;49.802;9.944;2023-04-24T14:58:57;15.70;1.00
5457;DHT22;2751;49.802;9.944;2023-04-24T15:01:24;15.70;1.00
5457;DHT22;2751;49.802;9.944;2023-04-24T15:03:51;15.60;1.00
5457;DHT22;2751;49.802;9.944;2023-04-24T15:06:18;15.70;1.00
5457;DHT22;2751;49.802;9.944;2023-04-24T15:08:45;15.50;1.00
5457;DHT22;2751;49.802;9.944;2023-04-24T15:11:14;16.20;1.00
5457;DHT22;2751;49.802;9.944;2023-04-24T15:13:41;17.70;1.00
5457;DHT22;2751;49.802;9.944;2023-04-24T15:16:07;18.10;1.00
5457;DHT22;2751;49.802;9.944;2023-04-24T15:18:35;18.10;1.00
5457;DHT22;2751;49.802;9.944;2023-04-24T15:21:02;16.80;1.00
5457;DHT22;2751;49.802;9.944;2023-04-24T15:23:28;15.90;1.00
5457;DHT22;2751;49.802;9.944;2023-04-24T15:25:55;15.20;1.00
5457;DHT22;2751;49.802;9.944;2023-04-24T15:28:24;14.90;1.00
5457;DHT22;2751;49.802;9.944;2023-04-24T15:30:51;15.90;1.00
5457;DHT22;2751;49.802;9.944;2023-04-24T15:33:18;15.80;1.00
5457;DHT22;2751;49.802;9.944;2023-04-24T15:35:45;15.30;1.00
5457;DHT22;2751;49.802;9.944;2023-04-24T15:38:12;15.00;1.00
5457;DHT22;2751;49.802;9.944;2023-04-24T15:40:39;14.70;1.00
5457;DHT22;2751;49.802;9.944;2023-04-24T15:43:06;14.40;1.00
5457;DHT22;2751;49.802;9.944;2023-04-24T15:45:34;14.40;1.00
5457;DHT22;2751;49.802;9.944;2023-04-24T15:48:01;14.20;1.00
5457;DHT22;2751;49.802;9.944;2023-04-24T15:50:28;14.10;1.00
5457;DHT22;2751;49.802;9.944;2023-04-24T15:52:55;14.00;1.00
5457;DHT22;2751;49.802;9.944;2023-04-24T15:55:22;14.10;1.00
5457;DHT22;2751;49.802;9.944;2023-04-24T15:57:49;14.10;1.00
5457;DHT22;2751;49.802;9.944;2023-04-24T16:00:16;14.30;1.00
5457;DHT22;2751;49.802;9.944;2023-04-24T16:02:45;14.90;1.00
5457;DHT22;2751;49.802;9.944;2023-04-24T16:05:13;14.60;1.00
5457;DHT22;2751;49.802;9.944;2023-04-24T16:07:40;13.90;1.00
5457;DHT22;2751;49.802;9.944;2023-04-24T16:10:08;13.70;1.00
5457;DHT22;2751;49.802;9.944;2023-04-24T16:12:35;13.60;1.00
5457;DHT22;2751;49.802;9.944;2023-04-24T16:15:02;13.50;1.00
5457;DHT22;2751;49.802;9.944;2023-04-24T16:17:29;13.40;1.00